Terminal Aerodrome Forecast
Issued by NWS

Home | Current Version | Previous Version | Graphics & Text | Print | Product List | Glossary On
Versions: 1 2 3 4 5 6 7 8 9 10 11 12 13
275
FTUS45 KGGW 200105 AAA
TAFSDY
TAF AMD
KSDY 200105Z 2001/2024 VRB06KT P6SM SCT003 BKN070
     FM200300 VRB03KT 2SM BR SCT003 OVC020
     FM201400 25008KT P6SM SCT010=

USA.gov is the U.S. government's official web portal to all federal, state and local government web resources and services.